sensor_id;sensor_type;location;lat;lon;timestamp;pressure;altitude;pressure_sealevel;temperature;humidity
54144;BME280;40050;47.324;18.792;2023-05-07T00:01:14;1003.75;;;18.03;67.79
54144;BME280;40050;47.324;18.792;2023-05-07T00:03:15;1003.86;;;18.01;66.87
54144;BME280;40050;47.324;18.792;2023-05-07T00:05:16;1003.61;;;17.79;66.91
54144;BME280;40050;47.324;18.792;2023-05-07T00:07:17;1003.87;;;17.91;67.19
54144;BME280;40050;47.324;18.792;2023-05-07T00:09:18;1003.90;;;17.87;67.43
54144;BME280;40050;47.324;18.792;2023-05-07T00:11:19;1003.86;;;17.84;67.60
54144;BME280;40050;47.324;18.792;2023-05-07T00:13:20;1003.87;;;17.82;67.52
54144;BME280;40050;47.324;18.792;2023-05-07T00:15:21;1003.91;;;17.81;67.60
54144;BME280;40050;47.324;18.792;2023-05-07T00:17:22;1003.85;;;17.75;67.60
54144;BME280;40050;47.324;18.792;2023-05-07T00:19:22;1003.87;;;17.73;67.75
54144;BME280;40050;47.324;18.792;2023-05-07T00:21:23;1003.83;;;17.66;67.72
54144;BME280;40050;47.324;18.792;2023-05-07T00:23:24;1003.72;;;17.56;67.91
54144;BME280;40050;47.324;18.792;2023-05-07T00:25:25;1003.87;;;17.61;68.04
54144;BME280;40050;47.324;18.792;2023-05-07T00:27:26;1003.90;;;17.60;68.08
54144;BME280;40050;47.324;18.792;2023-05-07T00:29:27;1003.87;;;17.57;68.13
54144;BME280;40050;47.324;18.792;2023-05-07T00:31:28;1003.93;;;17.57;67.86
54144;BME280;40050;47.324;18.792;2023-05-07T00:33:29;1003.88;;;17.54;67.54
54144;BME280;40050;47.324;18.792;2023-05-07T00:35:30;1003.87;;;17.51;67.43
54144;BME280;40050;47.324;18.792;2023-05-07T00:37:31;1003.84;;;17.48;67.58
54144;BME280;40050;47.324;18.792;2023-05-07T00:39:32;1003.83;;;17.43;67.78
54144;BME280;40050;47.324;18.792;2023-05-07T00:41:33;1003.80;;;17.40;67.70
54144;BME280;40050;47.324;18.792;2023-05-07T00:43:33;1003.86;;;17.36;67.57
54144;BME280;40050;47.324;18.792;2023-05-07T00:45:34;1003.88;;;17.33;67.36
54144;BME280;40050;47.324;18.792;2023-05-07T00:47:35;1003.91;;;17.30;67.31
54144;BME280;40050;47.324;18.792;2023-05-07T00:49:43;1003.93;;;17.25;67.29
54144;BME280;40050;47.324;18.792;2023-05-07T00:51:44;1003.87;;;17.20;67.45
54144;BME280;40050;47.324;18.792;2023-05-07T00:53:45;1003.87;;;17.16;67.50
54144;BME280;40050;47.324;18.792;2023-05-07T00:55:47;1003.88;;;17.13;67.79
54144;BME280;40050;47.324;18.792;2023-05-07T00:57:48;1003.84;;;17.10;67.70
54144;BME280;40050;47.324;18.792;2023-05-07T00:59:50;1003.91;;;17.09;67.79
54144;BME280;40050;47.324;18.792;2023-05-07T01:01:52;1003.94;;;17.07;67.81
54144;BME280;40050;47.324;18.792;2023-05-07T01:03:53;1003.93;;;17.03;67.82
54144;BME280;40050;47.324;18.792;2023-05-07T01:05:54;1003.95;;;16.98;67.88
54144;BME280;40050;47.324;18.792;2023-05-07T01:07:55;1003.97;;;16.94;67.94
54144;BME280;40050;47.324;18.792;2023-05-07T01:09:57;1003.98;;;16.89;68.02
54144;BME280;40050;47.324;18.792;2023-05-07T01:11:58;1004.01;;;16.84;68.06
54144;BME280;40050;47.324;18.792;2023-05-07T01:13:59;1004.04;;;16.81;68.22
54144;BME280;40050;47.324;18.792;2023-05-07T01:16:00;1004.05;;;16.77;68.16
54144;BME280;40050;47.324;18.792;2023-05-07T01:18:01;1004.02;;;16.75;68.14
54144;BME280;40050;47.324;18.792;2023-05-07T01:20:04;1004.05;;;16.72;68.15
54144;BME280;40050;47.324;18.792;2023-05-07T01:22:07;1004.06;;;16.72;68.26
54144;BME280;40050;47.324;18.792;2023-05-07T01:24:08;1004.10;;;16.71;68.23
54144;BME280;40050;47.324;18.792;2023-05-07T01:26:10;1004.06;;;16.68;68.10
54144;BME280;40050;47.324;18.792;2023-05-07T01:28:11;1004.08;;;16.68;67.90
54144;BME280;40050;47.324;18.792;2023-05-07T01:30:12;1004.06;;;16.65;67.81
54144;BME280;40050;47.324;18.792;2023-05-07T01:32:13;1003.75;;;16.41;67.80
54144;BME280;40050;47.324;18.792;2023-05-07T01:34:14;1004.02;;;16.53;67.71
54144;BME280;40050;47.324;18.792;2023-05-07T01:36:18;1004.04;;;16.49;67.64
54144;BME280;40050;47.324;18.792;2023-05-07T01:38:21;1004.04;;;16.44;67.46
54144;BME280;40050;47.324;18.792;2023-05-07T01:40:23;1003.96;;;16.33;67.17
54144;BME280;40050;47.324;18.792;2023-05-07T01:42:25;1004.10;;;16.33;67.31
54144;BME280;40050;47.324;18.792;2023-05-07T01:44:25;1004.05;;;16.29;67.49
54144;BME280;40050;47.324;18.792;2023-05-07T01:46:27;1003.97;;;16.23;67.47
54144;BME280;40050;47.324;18.792;2023-05-07T01:48:28;1003.98;;;16.21;67.44
54144;BME280;40050;47.324;18.792;2023-05-07T01:50:29;1003.68;;;15.98;67.61
54144;BME280;40050;47.324;18.792;2023-05-07T01:52:31;1003.90;;;16.14;67.83
54144;BME280;40050;47.324;18.792;2023-05-07T01:54:32;1003.92;;;16.15;68.03
54144;BME280;40050;47.324;18.792;2023-05-07T01:56:33;1003.93;;;16.13;68.08
54144;BME280;40050;47.324;18.792;2023-05-07T01:58:34;1003.91;;;16.10;68.14
54144;BME280;40050;47.324;18.792;2023-05-07T02:00:35;1003.91;;;16.09;68.19
54144;BME280;40050;47.324;18.792;2023-05-07T02:02:36;1003.66;;;15.93;68.20
54144;BME280;40050;47.324;18.792;2023-05-07T02:04:37;1003.85;;;16.02;68.22
54144;BME280;40050;47.324;18.792;2023-05-07T02:06:38;1003.81;;;15.99;68.18
54144;BME280;40050;47.324;18.792;2023-05-07T02:08:39;1003.82;;;16.00;68.13
54144;BME280;40050;47.324;18.792;2023-05-07T02:10:40;1003.82;;;15.98;68.09
54144;BME280;40050;47.324;18.792;2023-05-07T02:12:40;1003.86;;;15.97;68.02
54144;BME280;40050;47.324;18.792;2023-05-07T02:14:41;1003.84;;;15.93;67.93
54144;BME280;40050;47.324;18.792;2023-05-07T02:16:42;1003.86;;;15.89;67.75
54144;BME280;40050;47.324;18.792;2023-05-07T02:18:43;1003.88;;;15.85;67.68
54144;BME280;40050;47.324;18.792;2023-05-07T02:20:44;1003.85;;;15.82;67.54
54144;BME280;40050;47.324;18.792;2023-05-07T02:22:45;1003.88;;;15.77;67.13
54144;BME280;40050;47.324;18.792;2023-05-07T02:24:46;1003.83;;;15.72;67.18
54144;BME280;40050;47.324;18.792;2023-05-07T02:26:47;1003.76;;;15.67;67.33
54144;BME280;40050;47.324;18.792;2023-05-07T02:28:48;1003.75;;;15.65;67.47
54144;BME280;40050;47.324;18.792;2023-05-07T02:30:49;1003.76;;;15.62;67.42
54144;BME280;40050;47.324;18.792;2023-05-07T02:32:50;1003.69;;;15.60;67.55
54144;BME280;40050;47.324;18.792;2023-05-07T02:34:51;1003.62;;;15.56;67.69
54144;BME280;40050;47.324;18.792;2023-05-07T02:36:52;1003.66;;;15.57;67.84
54144;BME280;40050;47.324;18.792;2023-05-07T02:38:52;1003.68;;;15.59;67.90
54144;BME280;40050;47.324;18.792;2023-05-07T02:40:53;1003.65;;;15.54;67.77
54144;BME280;40050;47.324;18.792;2023-05-07T02:42:54;1003.67;;;15.55;67.71
54144;BME280;40050;47.324;18.792;2023-05-07T02:44:55;1003.67;;;15.54;67.75
54144;BME280;40050;47.324;18.792;2023-05-07T02:46:56;1003.63;;;15.54;67.82
54144;BME280;40050;47.324;18.792;2023-05-07T02:48:57;1003.61;;;15.52;67.87
54144;BME280;40050;47.324;18.792;2023-05-07T02:50:58;1003.56;;;15.48;67.89
54144;BME280;40050;47.324;18.792;2023-05-07T02:52:59;1003.63;;;15.50;68.08
54144;BME280;40050;47.324;18.792;2023-05-07T02:55:00;1003.68;;;15.47;67.99
54144;BME280;40050;47.324;18.792;2023-05-07T02:57:01;1003.57;;;15.44;67.76
54144;BME280;40050;47.324;18.792;2023-05-07T02:59:02;1003.72;;;15.42;67.78
54144;BME280;40050;47.324;18.792;2023-05-07T03:01:03;1003.72;;;15.40;67.88
54144;BME280;40050;47.324;18.792;2023-05-07T03:03:04;1003.69;;;15.37;67.96
54144;BME280;40050;47.324;18.792;2023-05-07T03:05:05;1003.73;;;15.41;67.69
54144;BME280;40050;47.324;18.792;2023-05-07T03:07:06;1003.66;;;15.38;67.53
54144;BME280;40050;47.324;18.792;2023-05-07T03:09:07;1003.61;;;15.31;67.27
54144;BME280;40050;47.324;18.792;2023-05-07T03:11:08;1003.69;;;15.36;67.08
54144;BME280;40050;47.324;18.792;2023-05-07T03:13:09;1003.74;;;15.35;67.01
54144;BME280;40050;47.324;18.792;2023-05-07T03:15:10;1003.73;;;15.32;66.95
54144;BME280;40050;47.324;18.792;2023-05-07T03:17:11;1003.77;;;15.26;67.12
54144;BME280;40050;47.324;18.792;2023-05-07T03:19:12;1003.78;;;15.26;67.48
54144;BME280;40050;47.324;18.792;2023-05-07T03:21:13;1003.78;;;15.21;67.72
54144;BME280;40050;47.324;18.792;2023-05-07T03:23:14;1003.86;;;15.22;67.89
54144;BME280;40050;47.324;18.792;2023-05-07T03:25:15;1003.84;;;15.17;67.82
54144;BME280;40050;47.324;18.792;2023-05-07T03:27:16;1003.88;;;15.17;67.78
54144;BME280;40050;47.324;18.792;2023-05-07T03:29:17;1003.85;;;15.13;67.90
54144;BME280;40050;47.324;18.792;2023-05-07T03:31:17;1003.89;;;15.14;68.10
54144;BME280;40050;47.324;18.792;2023-05-07T03:33:18;1003.74;;;15.01;68.14
54144;BME280;40050;47.324;18.792;2023-05-07T03:35:19;1003.91;;;15.09;68.33
54144;BME280;40050;47.324;18.792;2023-05-07T03:37:20;1003.94;;;15.09;68.41
54144;BME280;40050;47.324;18.792;2023-05-07T03:39:21;1003.77;;;14.96;68.47
54144;BME280;40050;47.324;18.792;2023-05-07T03:41:22;1003.78;;;14.97;68.37
54144;BME280;40050;47.324;18.792;2023-05-07T03:43:23;1003.89;;;15.02;68.29
54144;BME280;40050;47.324;18.792;2023-05-07T03:45:24;1004.04;;;15.06;68.38
54144;BME280;40050;47.324;18.792;2023-05-07T03:47:25;1004.03;;;15.06;68.33
54144;BME280;40050;47.324;18.792;2023-05-07T03:49:26;1003.99;;;15.03;68.45
54144;BME280;40050;47.324;18.792;2023-05-07T03:51:27;1004.03;;;15.03;68.54
54144;BME280;40050;47.324;18.792;2023-05-07T03:53:27;1004.00;;;15.04;68.63
54144;BME280;40050;47.324;18.792;2023-05-07T03:55:28;1003.95;;;15.02;68.73
54144;BME280;40050;47.324;18.792;2023-05-07T03:57:29;1003.96;;;15.03;68.79
54144;BME280;40050;47.324;18.792;2023-05-07T03:59:30;1003.97;;;15.04;68.95
54144;BME280;40050;47.324;18.792;2023-05-07T04:01:31;1003.93;;;15.03;69.05
54144;BME280;40050;47.324;18.792;2023-05-07T04:03:32;1003.96;;;15.04;69.17
54144;BME280;40050;47.324;18.792;2023-05-07T04:05:33;1003.97;;;15.05;69.20
54144;BME280;40050;47.324;18.792;2023-05-07T04:07:34;1004.00;;;15.06;69.21
54144;BME280;40050;47.324;18.792;2023-05-07T04:09:35;1003.96;;;15.08;69.15
54144;BME280;40050;47.324;18.792;2023-05-07T04:11:36;1004.00;;;15.10;69.29
54144;BME280;40050;47.324;18.792;2023-05-07T04:13:37;1004.02;;;15.14;69.51
54144;BME280;40050;47.324;18.792;2023-05-07T04:15:37;1004.04;;;15.17;70.14
54144;BME280;40050;47.324;18.792;2023-05-07T04:17:38;1004.06;;;15.22;70.44
54144;BME280;40050;47.324;18.792;2023-05-07T04:19:39;1003.98;;;15.24;70.66
54144;BME280;40050;47.324;18.792;2023-05-07T04:21:40;1004.00;;;15.29;71.33
54144;BME280;40050;47.324;18.792;2023-05-07T04:23:41;1004.11;;;15.34;71.55
54144;BME280;40050;47.324;18.792;2023-05-07T04:25:42;1004.14;;;15.40;71.88
54144;BME280;40050;47.324;18.792;2023-05-07T04:27:43;1004.14;;;15.46;71.95
54144;BME280;40050;47.324;18.792;2023-05-07T04:29:44;1004.18;;;15.51;72.14
54144;BME280;40050;47.324;18.792;2023-05-07T04:31:45;1004.22;;;15.53;72.28
54144;BME280;40050;47.324;18.792;2023-05-07T04:33:46;1004.21;;;15.58;72.40
54144;BME280;40050;47.324;18.792;2023-05-07T04:35:47;1004.22;;;15.61;72.37
54144;BME280;40050;47.324;18.792;2023-05-07T04:37:47;1004.31;;;15.67;72.58
54144;BME280;40050;47.324;18.792;2023-05-07T04:39:48;1004.25;;;15.74;72.80
54144;BME280;40050;47.324;18.792;2023-05-07T04:41:49;1004.21;;;15.77;72.95
54144;BME280;40050;47.324;18.792;2023-05-07T04:43:50;1003.87;;;15.63;73.45
54144;BME280;40050;47.324;18.792;2023-05-07T04:45:51;1004.19;;;15.88;73.68
54144;BME280;40050;47.324;18.792;2023-05-07T04:47:52;1004.16;;;15.91;73.60
54144;BME280;40050;47.324;18.792;2023-05-07T04:49:53;1004.16;;;15.98;73.66
54144;BME280;40050;47.324;18.792;2023-05-07T04:51:54;1004.20;;;16.04;73.66
54144;BME280;40050;47.324;18.792;2023-05-07T04:53:55;1004.21;;;16.09;73.59
54144;BME280;40050;47.324;18.792;2023-05-07T04:55:56;1004.22;;;16.17;73.57
54144;BME280;40050;47.324;18.792;2023-05-07T04:57:57;1004.25;;;16.24;73.54
54144;BME280;40050;47.324;18.792;2023-05-07T04:59:58;1004.22;;;16.30;73.77
54144;BME280;40050;47.324;18.792;2023-05-07T05:01:59;1004.21;;;16.38;74.00
54144;BME280;40050;47.324;18.792;2023-05-07T05:04:00;1004.22;;;16.46;74.28
54144;BME280;40050;47.324;18.792;2023-05-07T05:06:01;1003.92;;;16.38;74.32
54144;BME280;40050;47.324;18.792;2023-05-07T05:08:02;1004.11;;;16.64;74.30
54144;BME280;40050;47.324;18.792;2023-05-07T05:10:03;1004.17;;;16.77;74.42
54144;BME280;40050;47.324;18.792;2023-05-07T05:12:04;1004.18;;;16.88;74.61
54144;BME280;40050;47.324;18.792;2023-05-07T05:14:05;1004.13;;;16.99;74.81
54144;BME280;40050;47.324;18.792;2023-05-07T05:16:06;1004.25;;;17.18;74.66
54144;BME280;40050;47.324;18.792;2023-05-07T05:18:07;1004.23;;;17.32;74.57
54144;BME280;40050;47.324;18.792;2023-05-07T05:20:08;1004.21;;;17.43;74.67
54144;BME280;40050;47.324;18.792;2023-05-07T05:22:09;1003.98;;;17.48;74.98
54144;BME280;40050;47.324;18.792;2023-05-07T05:24:10;1004.18;;;17.78;74.59
54144;BME280;40050;47.324;18.792;2023-05-07T05:26:11;1004.14;;;17.88;74.00
54144;BME280;40050;47.324;18.792;2023-05-07T05:28:12;1004.20;;;17.97;73.74
54144;BME280;40050;47.324;18.792;2023-05-07T05:30:13;1004.18;;;18.06;73.51
54144;BME280;40050;47.324;18.792;2023-05-07T05:32:14;1004.17;;;18.19;73.17
54144;BME280;40050;47.324;18.792;2023-05-07T05:34:14;1004.20;;;18.30;72.13
54144;BME280;40050;47.324;18.792;2023-05-07T05:36:16;1004.20;;;18.40;71.74
54144;BME280;40050;47.324;18.792;2023-05-07T05:38:17;1004.16;;;18.51;71.92
54144;BME280;40050;47.324;18.792;2023-05-07T05:40:18;1004.10;;;18.68;71.91
54144;BME280;40050;47.324;18.792;2023-05-07T05:42:19;1004.08;;;18.84;72.16
54144;BME280;40050;47.324;18.792;2023-05-07T05:44:19;1003.75;;;18.82;71.87
54144;BME280;40050;47.324;18.792;2023-05-07T05:46:20;1004.08;;;19.18;71.39
54144;BME280;40050;47.324;18.792;2023-05-07T05:48:21;1004.02;;;19.33;70.87
54144;BME280;40050;47.324;18.792;2023-05-07T05:50:22;1004.04;;;19.48;71.26
54144;BME280;40050;47.324;18.792;2023-05-07T05:52:23;1004.05;;;19.62;70.85
54144;BME280;40050;47.324;18.792;2023-05-07T05:54:24;1004.07;;;19.73;70.43
54144;BME280;40050;47.324;18.792;2023-05-07T05:56:25;1004.15;;;19.86;70.24
54144;BME280;40050;47.324;18.792;2023-05-07T05:58:26;1004.19;;;20.03;70.59
54144;BME280;40050;47.324;18.792;2023-05-07T06:00:27;1004.19;;;20.21;70.63
54144;BME280;40050;47.324;18.792;2023-05-07T06:02:28;1004.21;;;20.38;70.18
54144;BME280;40050;47.324;18.792;2023-05-07T06:04:29;1004.26;;;20.60;69.53
54144;BME280;40050;47.324;18.792;2023-05-07T06:06:30;1004.28;;;20.77;67.01
54144;BME280;40050;47.324;18.792;2023-05-07T06:08:31;1004.20;;;20.93;66.51
54144;BME280;40050;47.324;18.792;2023-05-07T06:10:32;1004.16;;;21.07;66.56
54144;BME280;40050;47.324;18.792;2023-05-07T06:12:33;1004.20;;;21.20;65.18
54144;BME280;40050;47.324;18.792;2023-05-07T06:14:34;1004.21;;;21.32;65.26
54144;BME280;40050;47.324;18.792;2023-05-07T06:16:35;1004.22;;;21.43;64.03
54144;BME280;40050;47.324;18.792;2023-05-07T06:18:36;1004.22;;;21.56;64.11
54144;BME280;40050;47.324;18.792;2023-05-07T06:20:36;1004.23;;;21.71;63.29
54144;BME280;40050;47.324;18.792;2023-05-07T06:22:37;1004.23;;;21.86;62.87
54144;BME280;40050;47.324;18.792;2023-05-07T06:24:38;1004.16;;;21.87;62.39
54144;BME280;40050;47.324;18.792;2023-05-07T06:26:39;1004.27;;;21.98;61.47
54144;BME280;40050;47.324;18.792;2023-05-07T06:28:40;1004.36;;;21.94;61.57
54144;BME280;40050;47.324;18.792;2023-05-07T06:30:41;1004.35;;;21.99;61.69
54144;BME280;40050;47.324;18.792;2023-05-07T06:32:42;1004.37;;;22.04;61.71
54144;BME280;40050;47.324;18.792;2023-05-07T06:34:43;1004.40;;;22.10;60.76
54144;BME280;40050;47.324;18.792;2023-05-07T06:36:44;1004.45;;;22.20;60.39
54144;BME280;40050;47.324;18.792;2023-05-07T06:38:45;1004.41;;;22.32;60.19
54144;BME280;40050;47.324;18.792;2023-05-07T06:40:47;1004.44;;;22.44;59.02
54144;BME280;40050;47.324;18.792;2023-05-07T06:42:48;1004.46;;;22.57;59.45
54144;BME280;40050;47.324;18.792;2023-05-07T06:44:49;1004.44;;;22.67;59.02
54144;BME280;40050;47.324;18.792;2023-05-07T06:46:50;1004.41;;;22.76;57.08
54144;BME280;40050;47.324;18.792;2023-05-07T06:48:51;1004.43;;;22.81;57.57
54144;BME280;40050;47.324;18.792;2023-05-07T06:50:52;1004.45;;;22.91;58.05
54144;BME280;40050;47.324;18.792;2023-05-07T06:52:53;1004.43;;;22.95;56.81
54144;BME280;40050;47.324;18.792;2023-05-07T06:54:54;1004.50;;;23.02;57.05
54144;BME280;40050;47.324;18.792;2023-05-07T06:56:55;1004.49;;;23.08;56.46
54144;BME280;40050;47.324;18.792;2023-05-07T06:58:56;1004.49;;;23.12;56.35
54144;BME280;40050;47.324;18.792;2023-05-07T07:00:56;1004.52;;;23.13;56.62
54144;BME280;40050;47.324;18.792;2023-05-07T07:02:57;1004.51;;;23.10;56.76
54144;BME280;40050;47.324;18.792;2023-05-07T07:04:58;1004.46;;;23.11;56.24
54144;BME280;40050;47.324;18.792;2023-05-07T07:06:59;1004.54;;;23.09;56.97
54144;BME280;40050;47.324;18.792;2023-05-07T07:09:00;1004.61;;;23.07;56.62
54144;BME280;40050;47.324;18.792;2023-05-07T07:11:01;1004.61;;;23.06;57.14
54144;BME280;40050;47.324;18.792;2023-05-07T07:13:02;1004.68;;;23.06;57.32
54144;BME280;40050;47.324;18.792;2023-05-07T07:15:03;1004.60;;;23.05;57.17
54144;BME280;40050;47.324;18.792;2023-05-07T07:17:04;1004.61;;;23.03;56.60
54144;BME280;40050;47.324;18.792;2023-05-07T07:19:05;1004.63;;;22.99;56.44
54144;BME280;40050;47.324;18.792;2023-05-07T07:21:06;1004.67;;;22.94;57.32
54144;BME280;40050;47.324;18.792;2023-05-07T07:23:07;1004.67;;;22.93;57.71
54144;BME280;40050;47.324;18.792;2023-05-07T07:25:08;1004.70;;;22.90;58.09
54144;BME280;40050;47.324;18.792;2023-05-07T07:27:09;1004.73;;;22.88;58.81
54144;BME280;40050;47.324;18.792;2023-05-07T07:29:10;1004.70;;;22.88;58.72
54144;BME280;40050;47.324;18.792;2023-05-07T07:31:11;1004.72;;;22.84;58.56
54144;BME280;40050;47.324;18.792;2023-05-07T07:33:12;1004.74;;;22.81;58.70
54144;BME280;40050;47.324;18.792;2023-05-07T07:35:13;1004.75;;;22.79;59.13
54144;BME280;40050;47.324;18.792;2023-05-07T07:37:14;1004.72;;;22.76;59.34
54144;BME280;40050;47.324;18.792;2023-05-07T07:39:15;1004.80;;;22.77;59.15
54144;BME280;40050;47.324;18.792;2023-05-07T07:41:16;1004.76;;;22.72;58.70
54144;BME280;40050;47.324;18.792;2023-05-07T07:43:16;1004.83;;;22.72;58.87
54144;BME280;40050;47.324;18.792;2023-05-07T07:45:17;1004.82;;;22.72;59.18
54144;BME280;40050;47.324;18.792;2023-05-07T07:47:18;1004.85;;;22.72;59.13
54144;BME280;40050;47.324;18.792;2023-05-07T07:49:19;1004.79;;;22.75;58.91
54144;BME280;40050;47.324;18.792;2023-05-07T07:51:20;1004.74;;;22.74;59.14
54144;BME280;40050;47.324;18.792;2023-05-07T07:53:21;1004.72;;;22.76;57.98
54144;BME280;40050;47.324;18.792;2023-05-07T07:55:22;1004.79;;;22.78;57.89
54144;BME280;40050;47.324;18.792;2023-05-07T07:57:23;1004.74;;;22.78;58.02
54144;BME280;40050;47.324;18.792;2023-05-07T07:59:24;1004.77;;;22.86;57.83
54144;BME280;40050;47.324;18.792;2023-05-07T08:01:25;1004.79;;;22.85;57.77
54144;BME280;40050;47.324;18.792;2023-05-07T08:03:26;1004.79;;;22.86;58.00
54144;BME280;40050;47.324;18.792;2023-05-07T08:05:27;1004.76;;;22.84;57.44
54144;BME280;40050;47.324;18.792;2023-05-07T08:07:28;1004.67;;;22.77;57.26
54144;BME280;40050;47.324;18.792;2023-05-07T08:09:29;1004.75;;;22.75;57.74
54144;BME280;40050;47.324;18.792;2023-05-07T08:11:30;1004.72;;;22.74;58.42
54144;BME280;40050;47.324;18.792;2023-05-07T08:13:31;1004.67;;;22.74;58.91
54144;BME280;40050;47.324;18.792;2023-05-07T08:15:32;1004.62;;;22.70;58.49
54144;BME280;40050;47.324;18.792;2023-05-07T08:17:32;1004.71;;;22.82;58.49
54144;BME280;40050;47.324;18.792;2023-05-07T08:19:33;1004.67;;;22.84;58.26
54144;BME280;40050;47.324;18.792;2023-05-07T08:21:34;1004.65;;;22.87;58.18
54144;BME280;40050;47.324;18.792;2023-05-07T08:23:35;1004.66;;;22.92;57.71
54144;BME280;40050;47.324;18.792;2023-05-07T08:25:36;1004.66;;;22.97;57.92
54144;BME280;40050;47.324;18.792;2023-05-07T08:27:37;1004.64;;;23.03;57.93
54144;BME280;40050;47.324;18.792;2023-05-07T08:29:38;1004.69;;;23.18;57.63
54144;BME280;40050;47.324;18.792;2023-05-07T08:31:39;1004.63;;;23.30;57.54
54144;BME280;40050;47.324;18.792;2023-05-07T08:33:40;1004.68;;;23.37;57.14
54144;BME280;40050;47.324;18.792;2023-05-07T08:35:41;1004.70;;;23.40;57.22
54144;BME280;40050;47.324;18.792;2023-05-07T08:37:42;1004.72;;;23.45;56.98
54144;BME280;40050;47.324;18.792;2023-05-07T08:39:42;1004.52;;;23.39;57.19
54144;BME280;40050;47.324;18.792;2023-05-07T08:41:47;1004.75;;;23.59;57.41
54144;BME280;40050;47.324;18.792;2023-05-07T08:43:49;1004.74;;;23.68;56.73
54144;BME280;40050;47.324;18.792;2023-05-07T08:45:51;1004.77;;;23.77;56.35
54144;BME280;40050;47.324;18.792;2023-05-07T08:47:55;1004.80;;;23.84;56.22
54144;BME280;40050;47.324;18.792;2023-05-07T08:49:58;1004.81;;;23.84;55.54
54144;BME280;40050;47.324;18.792;2023-05-07T08:52:00;1004.84;;;23.87;55.72
54144;BME280;40050;47.324;18.792;2023-05-07T08:54:01;1004.81;;;23.86;54.80
54144;BME280;40050;47.324;18.792;2023-05-07T08:56:02;1004.80;;;23.78;54.88
54144;BME280;40050;47.324;18.792;2023-05-07T08:58:03;1004.78;;;23.77;55.01
54144;BME280;40050;47.324;18.792;2023-05-07T09:00:04;1004.73;;;23.76;54.65
54144;BME280;40050;47.324;18.792;2023-05-07T09:02:06;1004.76;;;23.73;54.69
54144;BME280;40050;47.324;18.792;2023-05-07T09:04:09;1004.71;;;23.69;55.15
54144;BME280;40050;47.324;18.792;2023-05-07T09:06:10;1004.74;;;23.71;55.09
54144;BME280;40050;47.324;18.792;2023-05-07T09:08:14;1004.72;;;23.68;55.21
54144;BME280;40050;47.324;18.792;2023-05-07T09:10:15;1004.71;;;23.61;55.75
54144;BME280;40050;47.324;18.792;2023-05-07T09:12:17;1004.80;;;23.63;56.24
54144;BME280;40050;47.324;18.792;2023-05-07T09:14:18;1004.82;;;23.65;56.40
54144;BME280;40050;47.324;18.792;2023-05-07T09:16:22;1004.83;;;23.76;56.22
54144;BME280;40050;47.324;18.792;2023-05-07T09:18:25;1004.89;;;23.82;56.69
54144;BME280;40050;47.324;18.792;2023-05-07T09:20:27;1004.83;;;23.93;56.37
54144;BME280;40050;47.324;18.792;2023-05-07T09:22:27;1004.81;;;23.99;54.77
54144;BME280;40050;47.324;18.792;2023-05-07T09:24:28;1004.82;;;24.03;55.47
54144;BME280;40050;47.324;18.792;2023-05-07T09:26:29;1004.78;;;24.06;54.68
54144;BME280;40050;47.324;18.792;2023-05-07T09:28:30;1004.80;;;24.10;54.38
54144;BME280;40050;47.324;18.792;2023-05-07T09:30:31;1004.81;;;24.21;54.19
54144;BME280;40050;47.324;18.792;2023-05-07T09:32:34;1004.82;;;24.26;53.88
54144;BME280;40050;47.324;18.792;2023-05-07T09:34:35;1004.81;;;24.23;53.64
54144;BME280;40050;47.324;18.792;2023-05-07T09:36:36;1004.85;;;24.16;53.97
54144;BME280;40050;47.324;18.792;2023-05-07T09:38:37;1004.90;;;24.14;54.56
54144;BME280;40050;47.324;18.792;2023-05-07T09:40:38;1004.93;;;24.15;53.67
54144;BME280;40050;47.324;18.792;2023-05-07T09:42:39;1004.94;;;24.04;52.82
54144;BME280;40050;47.324;18.792;2023-05-07T09:44:40;1004.92;;;23.97;52.93
54144;BME280;40050;47.324;18.792;2023-05-07T09:46:42;1004.94;;;23.94;53.33
54144;BME280;40050;47.324;18.792;2023-05-07T09:48:44;1004.93;;;23.85;53.96
54144;BME280;40050;47.324;18.792;2023-05-07T09:50:48;1004.91;;;23.77;53.95
54144;BME280;40050;47.324;18.792;2023-05-07T09:52:49;1004.90;;;23.72;54.82
54144;BME280;40050;47.324;18.792;2023-05-07T09:54:50;1004.93;;;23.71;55.18
54144;BME280;40050;47.324;18.792;2023-05-07T09:56:52;1004.95;;;23.68;55.31
54144;BME280;40050;47.324;18.792;2023-05-07T09:58:54;1004.88;;;23.65;55.00
54144;BME280;40050;47.324;18.792;2023-05-07T10:00:56;1004.90;;;23.62;55.07
54144;BME280;40050;47.324;18.792;2023-05-07T10:02:58;1004.82;;;23.56;55.30
54144;BME280;40050;47.324;18.792;2023-05-07T10:04:59;1004.90;;;23.60;55.28
54144;BME280;40050;47.324;18.792;2023-05-07T10:07:01;1004.85;;;23.57;54.80
54144;BME280;40050;47.324;18.792;2023-05-07T10:09:02;1004.88;;;23.54;54.51
54144;BME280;40050;47.324;18.792;2023-05-07T10:11:03;1004.86;;;23.49;54.76
54144;BME280;40050;47.324;18.792;2023-05-07T10:13:05;1004.87;;;23.44;55.53
54144;BME280;40050;47.324;18.792;2023-05-07T10:15:09;1004.89;;;23.43;55.91
54144;BME280;40050;47.324;18.792;2023-05-07T10:17:11;1004.87;;;23.46;56.40
54144;BME280;40050;47.324;18.792;2023-05-07T10:19:12;1004.84;;;23.47;55.94
54144;BME280;40050;47.324;18.792;2023-05-07T10:21:17;1004.86;;;23.51;56.54
54144;BME280;40050;47.324;18.792;2023-05-07T10:23:19;1004.87;;;23.51;56.66
54144;BME280;40050;47.324;18.792;2023-05-07T10:25:25;1004.83;;;23.50;57.14
54144;BME280;40050;47.324;18.792;2023-05-07T10:27:27;1004.81;;;23.62;55.86
54144;BME280;40050;47.324;18.792;2023-05-07T10:29:34;1004.84;;;23.64;56.81
54144;BME280;40050;47.324;18.792;2023-05-07T10:33:53;1004.83;;;23.99;56.83
54144;BME280;40050;47.324;18.792;2023-05-07T10:35:57;1004.79;;;24.09;56.81
54144;BME280;40050;47.324;18.792;2023-05-07T10:37:59;1004.79;;;24.22;57.17
54144;BME280;40050;47.324;18.792;2023-05-07T10:40:00;1004.78;;;24.35;55.19
54144;BME280;40050;47.324;18.792;2023-05-07T10:42:07;1004.84;;;24.35;55.69
54144;BME280;40050;47.324;18.792;2023-05-07T10:44:08;1004.55;;;24.24;55.73